Time;durP1;ratioP1;P1;durP2;ratioP2;P2;SDS_P1;SDS_P2;PMS_P1;PMS_P2;Temp;Humidity;BMP_temperature;BMP_pressure;BME280_temperature;BME280_humidity;BME280_pressure;Samples;Min_cycle;Max_cycle;Signal;HPM_P1;HPM_P2
2022/03/15 00:00:20;;;;;;;;;5.00;5.00;;;;;20.93;38.08;102092.03;5066708;27;51899;-50
2022/03/15 00:02:47;;;;;;;;;9.25;5.75;;;;;20.93;37.93;102085.69;5062886;28;51088;-48
2022/03/15 00:05:12;;;;;;;;;7.00;4.50;;;;;20.92;37.69;102082.06;5061761;28;51050;-47
2022/03/15 00:07:38;;;;;;;;;4.75;4.75;;;;;20.91;37.65;102079.53;5069746;28;51168;-50
2022/03/15 00:10:04;;;;;;;;;8.50;6.50;;;;;20.90;38.05;102077.81;5066915;27;52507;-46
2022/03/15 00:12:30;;;;;;;;;6.50;5.00;;;;;20.89;37.61;102078.88;5070149;28;51079;-49
2022/03/15 00:14:55;;;;;;;;;5.75;4.00;;;;;20.88;37.94;102075.25;5067989;27;51396;-48
2022/03/15 00:17:22;;;;;;;;;9.00;5.25;;;;;20.88;37.70;102068.91;5065490;28;51204;-49
2022/03/15 00:19:47;;;;;;;;;5.00;4.00;;;;;20.87;38.29;102062.53;5057177;28;52898;-49
2022/03/15 00:22:14;;;;;;;;;6.50;5.75;;;;;20.86;38.08;102066.34;5064082;28;51260;-49
2022/03/15 00:24:43;;;;;;;;;7.25;6.00;;;;;20.85;37.61;102064.66;5065466;27;51301;-48
2022/03/15 00:27:12;;;;;;;;;4.00;4.00;;;;;20.85;37.80;102061.03;5061445;28;51360;-49
2022/03/15 00:29:38;;;;;;;;;5.50;4.25;;;;;20.84;37.50;102067.56;5067574;27;51835;-50
2022/03/15 00:32:06;;;;;;;;;5.75;5.75;;;;;20.84;37.90;102067.56;5063392;27;51175;-50
2022/03/15 00:34:31;;;;;;;;;7.50;5.25;;;;;20.83;37.63;102063.09;5061360;28;51113;-45
2022/03/15 00:36:56;;;;;;;;;4.25;4.00;;;;;20.82;37.58;102058.66;5057244;28;51452;-48
2022/03/15 00:39:22;;;;;;;;;5.00;4.50;;;;;20.80;37.61;102060.75;5062879;28;51681;-50
2022/03/15 00:41:47;;;;;;;;;4.75;4.25;;;;;20.80;38.19;102066.25;5059030;27;51121;-46
2022/03/15 00:44:13;;;;;;;;;4.50;3.25;;;;;20.79;37.84;102057.16;5062619;27;51151;-44
2022/03/15 00:46:38;;;;;;;;;3.25;3.25;;;;;20.79;37.54;102061.81;5060243;28;51008;-48
2022/03/15 00:49:03;;;;;;;;;5.25;3.50;;;;;20.78;38.15;102051.84;5067985;27;51714;-44
2022/03/15 00:51:29;;;;;;;;;5.75;3.75;;;;;20.76;37.94;102046.53;5063487;28;51065;-48
2022/03/15 00:53:54;;;;;;;;;3.25;3.25;;;;;20.76;37.55;102049.28;5064887;28;51837;-49
2022/03/15 00:56:20;;;;;;;;;2.25;2.25;;;;;20.74;37.89;102055.00;5066748;27;51356;-49
2022/03/15 00:58:45;;;;;;;;;4.75;2.75;;;;;20.75;37.49;102047.59;5058276;28;51093;-49
2022/03/15 01:01:10;;;;;;;;;4.50;4.50;;;;;20.74;37.72;102046.75;5070663;28;51151;-50
2022/03/15 01:03:36;;;;;;;;;4.25;4.25;;;;;20.73;37.56;102036.75;5062061;28;51132;-50
2022/03/15 01:06:01;;;;;;;;;7.00;3.75;;;;;20.72;37.92;102032.28;5064660;27;51195;-50
2022/03/15 01:08:26;;;;;;;;;4.50;4.25;;;;;20.72;37.94;102028.69;5063726;28;51850;-45
2022/03/15 01:10:52;;;;;;;;;4.00;4.00;;;;;20.71;37.56;102030.59;5066144;27;51092;-44
2022/03/15 01:13:17;;;;;;;;;3.50;3.50;;;;;20.71;37.87;102029.72;5066264;28;51409;-47
2022/03/15 01:15:43;;;;;;;;;2.25;2.00;;;;;20.70;37.79;102033.53;5063759;28;51141;-45
2022/03/15 01:18:09;;;;;;;;;2.75;2.75;;;;;20.70;37.82;102025.28;5074460;28;51213;-45
2022/03/15 01:20:39;;;;;;;;;4.00;4.00;;;;;20.69;37.53;102023.56;5066331;28;51438;-47
2022/03/15 01:23:04;;;;;;;;;4.50;4.00;;;;;20.67;37.51;102018.25;5070718;27;51216;-47
2022/03/15 01:25:30;;;;;;;;;4.00;2.00;;;;;20.67;37.60;102017.41;5067425;27;50965;-44
2022/03/15 01:27:56;;;;;;;;;4.25;3.50;;;;;20.66;37.45;102013.81;5071842;28;52382;-46
2022/03/15 01:30:22;;;;;;;;;5.00;2.50;;;;;20.67;37.91;102017.41;5072394;27;51098;-45
2022/03/15 01:32:48;;;;;;;;;6.75;4.00;;;;;20.66;37.92;102010.22;5061606;28;51186;-45
2022/03/15 01:35:13;;;;;;;;;6.75;3.50;;;;;20.65;37.97;102003.84;5064287;28;51056;-47
2022/03/15 01:37:38;;;;;;;;;3.50;3.50;;;;;20.64;37.55;102002.16;5067144;28;51155;-44
2022/03/15 01:40:04;;;;;;;;;4.00;3.00;;;;;20.64;37.96;101999.41;5063463;27;51418;-46
2022/03/15 01:42:30;;;;;;;;;4.50;4.50;;;;;20.63;37.95;102005.91;5067370;28;51257;-46
2022/03/15 01:44:55;;;;;;;;;3.25;2.25;;;;;20.62;38.01;101995.97;5062366;27;51296;-47
2022/03/15 01:47:21;;;;;;;;;3.00;3.00;;;;;20.62;37.58;101998.72;5062816;28;51599;-45
2022/03/15 01:49:46;;;;;;;;;5.00;4.00;;;;;20.62;37.50;101987.69;5063625;28;50995;-45
2022/03/15 01:52:15;;;;;;;;;4.00;3.00;;;;;20.63;38.05;101985.78;5068732;27;51267;-47
2022/03/15 01:54:42;;;;;;;;;2.00;2.00;;;;;20.62;37.73;101979.44;5064122;28;51246;-46
2022/03/15 01:57:08;;;;;;;;;2.75;2.75;;;;;20.60;37.41;101973.28;5068189;27;51979;-46
2022/03/15 01:59:35;;;;;;;;;3.00;3.00;;;;;20.60;37.62;101970.53;5058889;28;51333;-46
2022/03/15 02:02:00;;;;;;;;;3.75;2.75;;;;;20.60;38.07;101966.94;5068250;28;51466;-48
2022/03/15 02:04:26;;;;;;;;;4.25;2.50;;;;;20.59;37.51;101967.97;5063629;28;50969;-51
2022/03/15 02:07:05;;;;;;;;;4.00;2.00;;;;;20.58;37.91;101969.88;5062957;28;52014;-48
2022/03/15 02:09:30;;;;;;;;;3.00;3.00;;;;;20.57;37.56;101957.16;5062091;28;51408;-46
2022/03/15 02:11:56;;;;;;;;;3.00;3.00;;;;;20.57;37.77;101961.81;5063834;28;51140;-45
2022/03/15 02:14:22;;;;;;;;;2.00;2.00;;;;;20.56;37.75;101954.63;5062392;28;51293;-46
2022/03/15 02:16:47;;;;;;;;;4.00;3.25;;;;;20.55;37.62;101953.78;5066586;28;51613;-49
2022/03/15 02:19:13;;;;;;;;;2.00;2.00;;;;;20.55;37.46;101948.25;5063671;28;51029;-47
2022/03/15 02:21:38;;;;;;;;;3.00;2.00;;;;;20.55;37.81;101951.00;5062777;28;51018;-44
2022/03/15 02:24:06;;;;;;;;;4.50;3.00;;;;;20.54;37.36;101946.56;5065005;28;51303;-45
2022/03/15 02:26:32;;;;;;;;;3.00;3.00;;;;;20.54;37.69;101940.22;5064647;27;52095;-47
2022/03/15 02:28:57;;;;;;;;;3.75;2.25;;;;;20.53;37.99;101946.72;5071236;27;51062;-49
2022/03/15 02:31:24;;;;;;;;;4.00;4.00;;;;;20.52;37.76;101937.63;5066942;27;51414;-47
2022/03/15 02:33:49;;;;;;;;;2.00;2.00;;;;;20.52;37.95;101928.50;5066140;27;50929;-47
2022/03/15 02:36:16;;;;;;;;;2.25;2.25;;;;;20.52;37.71;101923.84;5065299;27;51349;-49
2022/03/15 02:38:42;;;;;;;;;3.00;3.00;;;;;20.50;37.83;101925.97;5066289;28;51192;-49
2022/03/15 02:41:07;;;;;;;;;2.50;2.00;;;;;20.51;38.07;101921.31;5057443;28;51187;-51
2022/03/15 02:43:33;;;;;;;;;1.75;1.75;;;;;20.50;38.11;101925.97;5066648;28;51223;-49
2022/03/15 02:45:59;;;;;;;;;3.00;1.00;;;;;20.50;37.66;101916.84;5066094;27;52940;-46
2022/03/15 02:48:25;;;;;;;;;2.50;2.00;;;;;20.49;37.96;101927.00;5067819;27;51163;-48
2022/03/15 02:50:50;;;;;;;;;2.00;2.00;;;;;20.49;37.69;101916.00;5065239;28;51243;-48
2022/03/15 02:53:16;;;;;;;;;2.00;2.00;;;;;20.49;38.12;101917.91;5063369;28;51021;-48
2022/03/15 02:55:42;;;;;;;;;1.50;1.50;;;;;20.49;38.02;101905.00;5065785;27;51078;-49
2022/03/15 02:58:07;;;;;;;;;4.50;3.00;;;;;20.47;37.78;101907.09;5072180;27;51458;-50
2022/03/15 03:00:34;;;;;;;;;3.00;3.00;;;;;20.47;38.07;101907.09;5062221;28;51018;-48
2022/03/15 03:02:59;;;;;;;;;3.75;3.25;;;;;20.45;37.69;101904.53;5074668;28;51154;-49
2022/03/15 03:05:24;;;;;;;;;2.00;2.00;;;;;20.46;37.66;101894.38;5067261;28;52092;-49
2022/03/15 03:07:50;;;;;;;;;2.50;2.50;;;;;20.46;38.11;101897.13;5062568;27;51057;-47
2022/03/15 03:10:16;;;;;;;;;2.50;2.00;;;;;20.44;37.60;101886.34;5063091;27;51188;-48
2022/03/15 03:12:44;;;;;;;;;2.00;2.00;;;;;20.44;38.19;101888.22;5068274;28;51861;-51
2022/03/15 03:15:11;;;;;;;;;2.00;2.00;;;;;20.44;37.81;101888.22;5065537;28;52851;-47
2022/03/15 03:17:40;;;;;;;;;3.75;2.50;;;;;20.44;38.48;101894.59;5075100;27;51250;-49
2022/03/15 03:20:10;;;;;;;;;1.25;1.25;;;;;20.43;37.99;101889.28;5062906;27;51236;-51
2022/03/15 03:22:36;;;;;;;;;2.00;2.00;;;;;20.42;37.98;101891.16;5063749;28;51092;-48
2022/03/15 03:25:02;;;;;;;;;1.00;1.00;;;;;20.42;38.17;101890.28;5064836;28;51187;-51
2022/03/15 03:27:27;;;;;;;;;1.50;1.50;;;;;20.42;37.75;101887.53;5069597;28;51109;-50
2022/03/15 03:29:53;;;;;;;;;2.00;2.00;;;;;20.41;38.02;101891.31;5057379;27;51226;-50
2022/03/15 03:32:18;;;;;;;;;1.25;1.25;;;;;20.41;38.37;101883.91;5064227;28;51091;-47
2022/03/15 03:34:43;;;;;;;;;2.00;2.00;;;;;20.40;38.55;101889.63;5068127;27;52534;-44
2022/03/15 03:37:09;;;;;;;;;2.25;1.00;;;;;20.40;38.24;101884.13;5067314;28;51067;-49
2022/03/15 03:39:34;;;;;;;;;1.25;1.25;;;;;20.40;38.29;101889.63;5071438;27;51143;-47
2022/03/15 03:41:59;;;;;;;;;2.50;2.00;;;;;20.39;38.07;101883.28;5065568;28;51483;-47
2022/03/15 03:44:25;;;;;;;;;2.00;2.00;;;;;20.39;37.96;101886.03;5062736;28;51887;-45
2022/03/15 03:46:50;;;;;;;;;1.75;1.25;;;;;20.39;37.99;101890.69;5068268;27;51016;-49
2022/03/15 03:49:16;;;;;;;;;1.75;1.75;;;;;20.38;38.09;101881.56;5062175;28;51131;-46
2022/03/15 03:51:42;;;;;;;;;3.50;3.00;;;;;20.39;38.37;101879.66;5067926;27;51430;-45
2022/03/15 03:54:08;;;;;;;;;2.75;2.75;;;;;20.38;38.15;101883.47;5066890;28;52740;-45
2022/03/15 03:56:33;;;;;;;;;2.50;2.25;;;;;20.37;38.09;101874.38;5063402;27;51125;-46
2022/03/15 03:58:59;;;;;;;;;2.00;2.00;;;;;20.37;38.36;101877.13;5065639;28;51267;-45
2022/03/15 04:01:25;;;;;;;;;5.00;1.75;;;;;20.36;38.47;101872.66;5065551;28;51493;-47
2022/03/15 04:03:50;;;;;;;;;3.75;2.25;;;;;20.35;37.97;101873.72;5067353;27;51800;-50
2022/03/15 04:06:15;;;;;;;;;1.00;1.00;;;;;20.35;38.24;101864.59;5068505;28;51094;-46
2022/03/15 04:08:42;;;;;;;;;2.00;2.00;;;;;20.35;38.48;101870.97;5066474;27;51112;-47
2022/03/15 04:11:08;;;;;;;;;3.75;2.00;;;;;20.34;38.21;101863.75;5072020;27;51454;-47
2022/03/15 04:13:34;;;;;;;;;4.25;2.25;;;;;20.35;38.65;101862.72;5067762;27;52858;-48
2022/03/15 04:16:00;;;;;;;;;2.00;2.00;;;;;20.34;38.21;101855.50;5066593;27;51113;-46
2022/03/15 04:18:25;;;;;;;;;2.00;2.00;;;;;20.34;38.44;101854.66;5058438;28;50934;-46
2022/03/15 04:20:51;;;;;;;;;2.00;2.00;;;;;20.34;38.67;101852.75;5062268;28;51058;-44
2022/03/15 04:23:16;;;;;;;;;1.75;1.75;;;;;20.33;38.61;101852.97;5068033;27;51776;-49
2022/03/15 04:25:42;;;;;;;;;2.75;2.75;;;;;20.33;38.70;101844.69;5071209;27;51137;-45
2022/03/15 04:28:07;;;;;;;;;1.00;1.00;;;;;20.33;38.33;101840.03;5069917;28;51163;-47
2022/03/15 04:30:33;;;;;;;;;1.00;1.00;;;;;20.33;38.31;101848.31;5076533;27;51101;-45
2022/03/15 04:33:01;;;;;;;;;1.75;1.75;;;;;20.33;38.37;101853.81;5066928;27;51922;-51
2022/03/15 04:35:26;;;;;;;;;1.00;1.00;;;;;20.32;38.62;101846.59;5067651;27;51369;-52
2022/03/15 04:37:52;;;;;;;;;3.25;1.25;;;;;20.32;38.15;101845.72;5063755;27;50981;-49
2022/03/15 04:40:18;;;;;;;;;3.50;2.50;;;;;20.32;38.71;101842.97;5064406;28;51423;-44
2022/03/15 04:42:45;;;;;;;;;3.00;3.00;;;;;20.31;38.29;101850.38;5064481;28;51322;-49
2022/03/15 04:45:11;;;;;;;;;1.75;1.75;;;;;20.31;38.22;101841.28;5071589;28;51493;-50
2022/03/15 04:47:37;;;;;;;;;2.25;1.00;;;;;20.31;38.22;101839.38;5068585;28;51095;-50
2022/03/15 04:50:02;;;;;;;;;3.50;1.25;;;;;20.31;38.89;101838.50;5064556;28;51273;-48
2022/03/15 04:52:28;;;;;;;;;2.00;2.00;;;;;20.30;38.80;101847.81;5057918;28;52692;-48
2022/03/15 04:54:53;;;;;;;;;1.50;1.00;;;;;20.29;38.53;101841.47;5065576;27;51140;-49
2022/03/15 04:57:18;;;;;;;;;2.25;2.00;;;;;20.29;38.78;101844.22;5065661;28;51076;-49
2022/03/15 04:59:44;;;;;;;;;2.00;1.00;;;;;20.29;38.76;101841.47;5065268;28;51052;-48
2022/03/15 05:02:09;;;;;;;;;3.00;1.50;;;;;20.29;38.37;101837.88;5061719;28;51240;-50
2022/03/15 05:04:34;;;;;;;;;1.25;1.00;;;;;20.28;38.60;101833.41;5072728;27;51088;-48
2022/03/15 05:07:00;;;;;;;;;0.75;0.75;;;;;20.28;38.42;101831.50;5056477;28;51141;-48
2022/03/15 05:09:26;;;;;;;;;1.25;1.25;;;;;20.28;38.89;101837.03;5072356;28;51322;-46
2022/03/15 05:11:51;;;;;;;;;1.25;1.25;;;;;20.29;38.61;101840.63;5067504;27;51167;-50
2022/03/15 05:14:16;;;;;;;;;3.00;2.00;;;;;20.27;38.89;101832.56;5067165;27;51052;-50
2022/03/15 05:16:42;;;;;;;;;0.50;0.50;;;;;20.27;38.84;101828.97;5062617;27;51155;-47
2022/03/15 05:19:07;;;;;;;;;1.00;1.00;;;;;20.26;38.80;101827.25;5060159;28;51131;-50
2022/03/15 05:21:33;;;;;;;;;2.75;2.75;;;;;20.26;38.53;101828.13;5072852;28;51072;-48
2022/03/15 05:23:58;;;;;;;;;1.00;1.00;;;;;20.26;38.94;101828.13;5067457;27;51112;-50
2022/03/15 05:26:24;;;;;;;;;2.00;2.00;;;;;20.25;38.96;101834.66;5067204;27;51440;-49
2022/03/15 05:28:50;;;;;;;;;2.75;2.75;;;;;20.26;38.66;101832.78;5069798;27;51372;-45
2022/03/15 05:31:20;;;;;;;;;0.50;0.50;;;;;20.25;38.98;101828.31;5055913;28;51725;-50
2022/03/15 05:33:48;;;;;;;;;2.00;2.00;;;;;20.25;38.80;101831.06;5059614;28;51457;-50
2022/03/15 05:36:15;;;;;;;;;1.00;1.00;;;;;20.24;38.75;101834.88;5063662;27;51045;-49
2022/03/15 05:38:41;;;;;;;;;2.00;2.00;;;;;20.24;38.96;101826.63;5073079;27;51056;-51
2022/03/15 05:41:08;;;;;;;;;1.75;1.00;;;;;20.25;39.03;101839.31;5060768;28;51920;-50
2022/03/15 05:43:34;;;;;;;;;0.00;0.00;;;;;20.23;39.04;101839.53;5064818;28;51455;-46
2022/03/15 05:46:00;;;;;;;;;2.00;1.00;;;;;20.24;38.98;101830.22;5063439;27;51131;-49
2022/03/15 05:48:25;;;;;;;;;1.00;1.00;;;;;20.23;39.00;101836.78;5068266;28;51009;-47
2022/03/15 05:50:51;;;;;;;;;2.75;2.75;;;;;20.22;38.79;101835.06;5060767;28;53035;-48
2022/03/15 05:53:16;;;;;;;;;1.00;1.00;;;;;20.24;38.86;101845.88;5065581;27;51063;-50
2022/03/15 05:55:42;;;;;;;;;2.00;2.00;;;;;20.23;38.95;101844.19;5059168;27;51719;-47
2022/03/15 05:58:08;;;;;;;;;1.50;1.50;;;;;20.23;39.19;101844.19;5065643;28;51339;-45
2022/03/15 06:00:33;;;;;;;;;1.25;1.25;;;;;20.22;38.72;101858.94;5058279;28;51180;-45
2022/03/15 06:02:59;;;;;;;;;3.00;3.00;;;;;20.22;39.21;101848.84;5064986;28;51175;-46
2022/03/15 06:05:24;;;;;;;;;3.75;3.25;;;;;20.23;39.37;101855.19;5065000;28;51184;-45
2022/03/15 06:07:51;;;;;;;;;4.25;4.00;;;;;20.22;39.33;101853.44;5059657;28;50982;-45
2022/03/15 06:10:24;;;;;;;;;4.50;3.00;;;;;20.22;39.21;101853.44;5069200;27;51937;-46
2022/03/15 06:12:51;;;;;;;;;6.00;4.50;;;;;20.20;39.37;101856.41;5062135;28;51364;-46
2022/03/15 06:15:18;;;;;;;;;5.00;4.00;;;;;20.18;39.60;101856.59;5055814;28;51164;-45
2022/03/15 06:17:43;;;;;;;;;5.00;5.00;;;;;20.17;40.00;101852.16;5070457;28;51215;-45
2022/03/15 06:20:12;;;;;;;;;5.50;4.50;;;;;20.14;39.98;101863.56;5064832;28;51108;-44
2022/03/15 06:22:38;;;;;;;;;5.25;5.25;;;;;20.12;40.02;101856.56;5072380;28;51037;-45
2022/03/15 06:25:03;;;;;;;;;5.00;5.00;;;;;20.10;40.19;101867.72;5066249;27;51081;-46
2022/03/15 06:27:29;;;;;;;;;4.25;3.00;;;;;20.09;40.18;101863.28;5064363;28;51276;-47
2022/03/15 06:29:54;;;;;;;;;6.75;6.50;;;;;20.08;40.66;101857.97;5060979;27;51975;-46
2022/03/15 06:32:19;;;;;;;;;4.25;4.25;;;;;20.06;40.58;101854.56;5062111;28;51099;-49
2022/03/15 06:34:45;;;;;;;;;4.25;4.25;;;;;20.04;40.72;101852.03;5072084;27;51504;-49
2022/03/15 06:37:10;;;;;;;;;8.00;6.00;;;;;20.03;40.77;101860.47;5062292;27;51300;-44
2022/03/15 06:39:36;;;;;;;;;5.75;5.75;;;;;19.99;41.25;101860.00;5065242;28;51812;-50
2022/03/15 06:42:09;;;;;;;;;6.00;4.50;;;;;20.01;41.19;101846.91;5062438;28;51616;-45
2022/03/15 06:44:37;;;;;;;;;5.50;4.25;;;;;20.06;41.61;101836.16;5075421;27;51261;-47
2022/03/15 06:47:02;;;;;;;;;6.00;4.50;;;;;20.13;41.65;101844.50;5062811;27;51190;-45
2022/03/15 06:49:28;;;;;;;;;3.50;3.00;;;;;20.22;41.09;101850.69;5068794;28;51117;-47
2022/03/15 06:51:53;;;;;;;;;3.00;3.00;;;;;20.30;40.98;101847.81;5066960;28;51277;-45
2022/03/15 06:54:18;;;;;;;;;3.25;3.00;;;;;20.36;41.21;101844.28;5081746;27;51293;-45
2022/03/15 06:56:44;;;;;;;;;6.75;4.75;;;;;20.44;40.71;101853.31;5069073;28;51217;-47
2022/03/15 06:59:09;;;;;;;;;3.25;3.25;;;;;20.51;40.74;101847.84;5070447;28;51173;-48
2022/03/15 07:01:34;;;;;;;;;4.00;3.00;;;;;20.59;41.12;101849.59;5063837;28;51014;-46
2022/03/15 07:04:00;;;;;;;;;2.00;2.00;;;;;20.63;41.61;101835.22;5072606;27;51297;-48
2022/03/15 07:06:25;;;;;;;;;3.00;3.00;;;;;20.68;41.64;101834.66;5058550;28;51165;-48
2022/03/15 07:08:50;;;;;;;;;2.50;2.50;;;;;20.74;41.23;101826.44;5070077;28;51599;-45
2022/03/15 07:11:16;;;;;;;;;5.00;5.00;;;;;20.78;41.42;101832.41;5059074;28;51589;-50
2022/03/15 07:13:41;;;;;;;;;5.25;3.75;;;;;20.84;41.22;101841.75;5071272;28;51316;-48
2022/03/15 07:16:07;;;;;;;;;4.75;3.00;;;;;20.89;41.75;101839.25;5066154;27;51278;-47
2022/03/15 07:18:32;;;;;;;;;3.00;3.00;;;;;20.94;41.38;101845.00;5076874;27;52517;-50
2022/03/15 07:20:57;;;;;;;;;3.00;3.00;;;;;21.00;41.70;101852.47;5069149;27;51481;-45
2022/03/15 07:23:23;;;;;;;;;6.00;3.00;;;;;21.01;41.78;101843.16;5068867;27;51152;-48
2022/03/15 07:25:48;;;;;;;;;3.50;3.50;;;;;20.99;42.10;101843.34;5057450;28;51311;-51
2022/03/15 07:28:14;;;;;;;;;3.75;3.75;;;;;20.95;41.97;101855.00;5066278;28;52488;-47
2022/03/15 07:30:39;;;;;;;;;5.00;2.25;;;;;20.91;42.26;101859.19;5065141;27;51564;-49
2022/03/15 07:33:04;;;;;;;;;4.00;3.00;;;;;20.86;42.17;101857.03;5059963;28;51103;-47
2022/03/15 07:35:30;;;;;;;;;4.00;4.00;;;;;20.82;42.16;101863.97;5061390;28;51078;-47
2022/03/15 07:37:55;;;;;;;;;5.25;4.00;;;;;20.78;42.67;101870.09;5076915;27;51888;-48
2022/03/15 07:40:23;;;;;;;;;7.50;5.00;;;;;20.75;43.11;101860.34;5062760;27;52116;-46
2022/03/15 07:42:49;;;;;;;;;5.75;5.00;;;;;20.71;43.05;101868.13;5086706;27;51196;-47
2022/03/15 07:45:15;;;;;;;;;8.00;5.25;;;;;20.74;42.98;101866.91;5073258;27;51461;-47
2022/03/15 07:47:41;;;;;;;;;5.50;5.50;;;;;20.79;42.69;101847.03;5064405;28;51986;-47
2022/03/15 07:50:07;;;;;;;;;4.50;4.25;;;;;20.84;42.56;101836.22;5065812;28;51092;-46
2022/03/15 07:52:32;;;;;;;;;6.50;4.00;;;;;20.92;42.68;101844.34;5073729;28;51082;-49
2022/03/15 07:54:58;;;;;;;;;3.75;2.75;;;;;21.00;42.45;101836.78;5069512;27;50988;-49
2022/03/15 07:57:23;;;;;;;;;6.50;4.50;;;;;21.07;42.07;101841.50;5069255;28;51800;-45
2022/03/15 07:59:49;;;;;;;;;4.00;4.00;;;;;21.09;42.38;101843.00;5061647;28;51112;-49
2022/03/15 08:02:15;;;;;;;;;6.00;5.00;;;;;21.10;42.10;101844.69;5059318;28;51181;-47
2022/03/15 08:04:41;;;;;;;;;6.25;5.75;;;;;21.09;41.61;101848.50;5057518;28;51091;-45
2022/03/15 08:07:07;;;;;;;;;6.00;6.00;;;;;21.06;41.70;101829.63;5073311;28;51630;-46
2022/03/15 08:09:32;;;;;;;;;6.50;5.50;;;;;21.04;41.66;101838.06;5057181;28;51100;-49
2022/03/15 08:11:58;;;;;;;;;5.00;4.75;;;;;21.01;41.26;101834.88;5057949;28;51097;-49
2022/03/15 08:14:23;;;;;;;;;5.50;5.25;;;;;20.98;41.65;101832.53;5073796;28;51404;-48
2022/03/15 08:16:49;;;;;;;;;6.75;4.25;;;;;20.96;41.25;101837.41;5077097;28;51135;-52
2022/03/15 08:19:14;;;;;;;;;5.50;5.50;;;;;20.94;41.38;101833.97;5077417;28;51013;-49
2022/03/15 08:21:39;;;;;;;;;5.25;5.25;;;;;20.92;41.59;101830.56;5077322;28;50989;-50
2022/03/15 08:24:05;;;;;;;;;6.00;4.25;;;;;20.90;41.23;101830.78;5076702;28;51431;-50
2022/03/15 08:26:30;;;;;;;;;5.75;5.75;;;;;20.88;41.56;101835.66;5079438;27;53511;-51
2022/03/15 08:28:56;;;;;;;;;5.25;5.25;;;;;20.87;41.57;101822.94;5065442;27;51133;-48
2022/03/15 08:31:21;;;;;;;;;5.00;5.00;;;;;20.86;41.27;101824.00;5097085;27;51120;-48
2022/03/15 08:33:47;;;;;;;;;3.75;3.75;;;;;20.84;41.01;101822.47;5057822;28;50981;-50
2022/03/15 08:36:13;;;;;;;;;6.75;6.75;;;;;20.84;41.35;101834.38;5056527;28;51897;-49
2022/03/15 08:38:39;;;;;;;;;3.50;3.50;;;;;20.82;40.96;101830.94;5056805;28;51348;-46
2022/03/15 08:41:05;;;;;;;;;5.00;5.00;;;;;20.80;40.71;101835.78;5057427;28;51197;-49
2022/03/15 08:43:30;;;;;;;;;5.00;5.00;;;;;20.79;40.85;101844.25;5067594;28;51154;-44
2022/03/15 08:45:56;;;;;;;;;4.75;3.75;;;;;20.77;41.12;101847.22;5076783;28;51036;-46
2022/03/15 08:48:21;;;;;;;;;4.00;4.00;;;;;20.75;40.90;101850.19;5076772;28;51163;-52
2022/03/15 08:50:47;;;;;;;;;5.00;5.00;;;;;20.74;40.58;101847.63;5072714;28;51226;-45
2022/03/15 08:53:13;;;;;;;;;4.50;4.50;;;;;20.72;41.09;101850.56;5056473;28;51043;-51
2022/03/15 08:55:39;;;;;;;;;5.50;5.50;;;;;20.69;40.56;101848.22;5057074;28;52842;-51
2022/03/15 08:58:04;;;;;;;;;3.50;3.50;;;;;20.68;40.88;101865.78;5055271;28;51100;-49
2022/03/15 09:00:30;;;;;;;;;5.25;5.25;;;;;20.68;41.04;101860.28;5056215;28;51053;-50
2022/03/15 09:02:55;;;;;;;;;6.00;5.00;;;;;20.65;40.97;101860.69;5059497;28;51336;-47
2022/03/15 09:05:20;;;;;;;;;3.50;3.25;;;;;20.65;40.51;101859.84;5076051;28;52704;-53
2022/03/15 09:07:50;;;;;;;;;5.00;5.00;;;;;20.63;40.88;101848.16;5076483;27;51108;-48
2022/03/15 09:10:16;;;;;;;;;6.75;5.00;;;;;20.62;40.25;101852.81;5076624;27;51000;-46
2022/03/15 09:12:41;;;;;;;;;3.75;3.75;;;;;20.60;40.47;101865.91;5074465;27;51366;-49
2022/03/15 09:15:07;;;;;;;;;8.50;5.50;;;;;20.60;40.46;101862.31;5076235;27;51735;-48
2022/03/15 09:17:32;;;;;;;;;6.25;5.75;;;;;20.58;40.44;101859.78;5069961;28;51986;-48
2022/03/15 09:19:57;;;;;;;;;5.00;4.50;;;;;20.57;40.25;101863.56;5070105;27;50982;-51
2022/03/15 09:22:23;;;;;;;;;5.00;5.00;;;;;20.56;40.59;101859.13;5063786;27;51169;-49
2022/03/15 09:24:48;;;;;;;;;6.00;6.00;;;;;20.56;40.45;101867.38;5065045;28;51735;-47
2022/03/15 09:27:13;;;;;;;;;4.25;3.50;;;;;20.55;40.79;101862.06;5067716;27;51167;-45
2022/03/15 09:29:39;;;;;;;;;4.00;4.00;;;;;20.54;40.12;101863.13;5066863;27;51148;-46
2022/03/15 09:32:05;;;;;;;;;5.25;5.25;;;;;20.52;40.19;101860.53;5063351;28;51195;-44
2022/03/15 09:34:31;;;;;;;;;5.75;5.75;;;;;20.51;40.12;101858.84;5061437;28;52801;-48
2022/03/15 09:37:00;;;;;;;;;3.50;3.50;;;;;20.50;40.40;101856.28;5062457;28;51137;-44
2022/03/15 09:39:26;;;;;;;;;5.25;5.25;;;;;20.50;40.47;101856.28;5067089;28;51043;-45
2022/03/15 09:41:54;;;;;;;;;3.50;3.00;;;;;20.49;40.10;101846.34;5063460;28;51141;-44
2022/03/15 09:44:20;;;;;;;;;7.75;6.00;;;;;20.46;40.37;101851.19;5060483;28;51083;-44
2022/03/15 09:46:51;;;;;;;;;4.00;4.00;;;;;20.46;40.26;101844.84;5067887;28;51054;-46
2022/03/15 09:49:18;;;;;;;;;5.00;5.00;;;;;20.46;40.19;101840.19;5060224;28;51225;-45
2022/03/15 09:51:45;;;;;;;;;5.25;5.25;;;;;20.46;40.23;101844.84;5058965;28;51373;-46
2022/03/15 09:54:12;;;;;;;;;6.25;5.00;;;;;20.45;40.55;101840.41;5057641;28;51149;-43
2022/03/15 09:56:41;;;;;;;;;5.00;5.00;;;;;20.44;40.51;101828.53;5073728;28;51517;-48
2022/03/15 09:59:17;;;;;;;;;4.75;4.75;;;;;20.44;40.49;101819.44;5058360;28;51055;-51
2022/03/15 10:01:43;;;;;;;;;4.50;4.50;;;;;20.42;40.13;101822.34;5062122;28;51327;-47
2022/03/15 10:04:10;;;;;;;;;4.00;4.00;;;;;20.42;40.03;101819.59;5063298;28;52781;-44
2022/03/15 10:06:39;;;;;;;;;5.00;5.00;;;;;20.41;40.57;101822.53;5075041;28;51146;-47
2022/03/15 10:09:05;;;;;;;;;5.50;5.50;;;;;20.41;40.18;101817.88;5063589;27;51218;-45
2022/03/15 10:11:31;;;;;;;;;8.00;5.50;;;;;20.40;40.10;101826.31;5070755;28;51242;-47
2022/03/15 10:13:57;;;;;;;;;5.25;5.00;;;;;20.40;39.91;101829.09;5069491;27;51226;-45
2022/03/15 10:16:32;;;;;;;;;4.75;4.75;;;;;20.39;40.13;101819.13;5064327;28;51392;-44
2022/03/15 10:18:59;;;;;;;;;6.00;6.00;;;;;20.39;40.15;101821.88;5065820;28;51215;-46
2022/03/15 10:21:39;;;;;;;;;5.50;4.75;;;;;20.37;40.14;101824.84;5073739;28;51036;-44
2022/03/15 10:24:08;;;;;;;;;6.75;5.50;;;;;20.38;40.06;101828.44;5065172;28;51773;-45
2022/03/15 10:26:38;;;;;;;;;6.00;4.75;;;;;20.37;40.51;101823.97;5061281;28;51117;-46
2022/03/15 10:29:04;;;;;;;;;5.00;5.00;;;;;20.36;40.06;101814.88;5078438;27;51046;-45
2022/03/15 10:31:30;;;;;;;;;9.00;5.50;;;;;20.36;39.99;101811.28;5076121;27;51289;-47
2022/03/15 10:34:00;;;;;;;;;5.00;5.00;;;;;20.37;40.28;101812.97;5056889;28;52144;-48
2022/03/15 10:36:27;;;;;;;;;3.00;3.00;;;;;20.36;39.99;101816.78;5075155;28;51310;-48
2022/03/15 10:38:53;;;;;;;;;7.00;7.00;;;;;20.35;39.90;101815.09;5062724;28;51093;-51
2022/03/15 10:41:20;;;;;;;;;6.25;4.75;;;;;20.33;40.43;101812.53;5073640;27;50911;-52
2022/03/15 10:43:53;;;;;;;;;5.00;5.00;;;;;20.34;40.16;101816.13;5074810;28;51003;-51
2022/03/15 10:46:23;;;;;;;;;5.50;4.75;;;;;20.34;39.85;101819.72;5075152;28;51268;-48
2022/03/15 10:48:59;;;;;;;;;6.00;6.00;;;;;20.34;39.99;101810.63;5075246;28;51095;-52
2022/03/15 10:51:25;;;;;;;;;4.50;4.50;;;;;20.33;40.16;101811.69;5056396;28;51347;-49
2022/03/15 10:53:50;;;;;;;;;4.75;4.75;;;;;20.32;40.10;101807.19;5059701;28;51140;-50
2022/03/15 10:56:21;;;;;;;;;5.75;4.00;;;;;20.31;40.26;101795.34;5070267;28;51204;-50
2022/03/15 10:59:01;;;;;;;;;4.75;4.75;;;;;20.31;40.25;101803.59;5061870;28;51206;-53
2022/03/15 11:01:38;;;;;;;;;6.25;5.50;;;;;20.31;40.14;101798.09;5065770;27;51155;-49
2022/03/15 11:04:06;;;;;;;;;7.50;6.00;;;;;20.31;40.26;101795.34;5064948;28;51913;-50
2022/03/15 11:06:41;;;;;;;;;5.00;5.00;;;;;20.31;39.84;101809.09;5063361;28;51489;-50
2022/03/15 11:09:29;;;;;;;;;6.00;6.00;;;;;20.30;40.22;101809.31;5057893;28;51218;-48
2022/03/15 11:12:04;;;;;;;;;6.00;6.00;;;;;20.29;40.41;101800.19;5056175;28;51298;-48
2022/03/15 11:14:48;;;;;;;;;7.00;5.50;;;;;20.29;39.85;101794.69;5054349;28;51856;-50
2022/03/15 11:17:20;;;;;;;;;7.50;5.75;;;;;20.29;39.87;101800.19;5057040;28;51079;-47
2022/03/15 11:19:47;;;;;;;;;9.00;6.00;;;;;20.29;40.00;101793.84;5070459;28;51135;-46